Time;durP1;ratioP1;P1;durP2;ratioP2;P2;SDS_P1;SDS_P2;PMS_P1;PMS_P2;Temp;Humidity;BMP_temperature;BMP_pressure;BME280_temperature;BME280_humidity;BME280_pressure;Samples;Min_cycle;Max_cycle;Signal;HPM_P1;HPM_P2
2023/08/31 00:00:35;;;;;;;1.27;1.00;;;20.20;72.40;;;;;;5052008;28;20123;-31
2023/08/31 00:03:04;;;;;;;2.20;1.00;;;20.60;82.60;;;;;;5051540;28;20049;-31
2023/08/31 00:05:31;;;;;;;2.05;1.00;;;;;;;;;;5052099;28;20055;-31
2023/08/31 00:07:58;;;;;;;1.20;1.00;;;;;;;;;;5059052;28;20128;-31
2023/08/31 00:10:25;;;;;;;2.10;1.00;;;;;;;;;;5072088;28;20049;-31
2023/08/31 00:12:52;;;;;;;1.45;1.00;;;21.10;82.00;;;;;;5070691;28;20495;-31
2023/08/31 00:15:19;;;;;;;1.80;1.10;;;21.80;68.20;;;;;;5071822;28;20084;-31
2023/08/31 00:17:46;;;;;;;1.48;1.10;;;;;;;;;;5060606;28;20155;-33
2023/08/31 00:20:14;;;;;;;1.33;1.00;;;20.80;82.70;;;;;;5051931;28;20049;-30
2023/08/31 00:22:41;;;;;;;1.77;0.98;;;;;;;;;;5051392;28;20128;-31
2023/08/31 00:25:09;;;;;;;2.53;1.00;;;19.80;70.80;;;;;;5064225;28;20131;-32
2023/08/31 00:27:36;;;;;;;1.00;0.90;;;21.60;82.30;;;;;;5062701;28;20398;-30
2023/08/31 00:30:06;;;;;;;1.63;1.27;;;20.60;81.80;;;;;;5065275;28;20083;-31
2023/08/31 00:32:34;;;;;;;1.38;0.90;;;20.50;72.90;;;;;;5071537;28;20456;-31
2023/08/31 00:35:01;;;;;;;1.73;0.98;;;;;;;;;;5071797;28;20136;-34
2023/08/31 00:37:30;;;;;;;2.95;1.00;;;20.20;74.90;;;;;;5062856;28;20049;-32
2023/08/31 00:39:57;;;;;;;1.38;1.00;;;20.70;81.80;;;;;;5051180;28;20132;-31
2023/08/31 00:42:24;;;;;;;1.35;1.00;;;20.90;81.00;;;;;;5051311;28;20132;-31
2023/08/31 00:44:51;;;;;;;1.92;1.27;;;20.90;82.20;;;;;;5051707;28;20124;-32
2023/08/31 00:47:18;;;;;;;2.70;1.00;;;20.40;82.60;;;;;;5051311;28;20575;-31
2023/08/31 00:49:45;;;;;;;2.60;1.10;;;;;;;;;;5051570;28;20077;-33
2023/08/31 00:52:11;;;;;;;1.55;1.00;;;20.80;82.80;;;;;;5051360;28;20132;-31
2023/08/31 00:54:42;;;;;;;2.83;0.93;;;20.30;68.80;;;;;;5051340;28;20702;-31
2023/08/31 00:57:09;;;;;;;1.55;1.00;;;;;;;;;;5051107;28;20208;-35
2023/08/31 00:59:36;;;;;;;1.02;0.93;;;20.30;81.80;;;;;;5051266;28;20123;-31
2023/08/31 01:02:06;;;;;;;1.48;0.80;;;20.50;65.40;;;;;;5051295;28;20578;-31
2023/08/31 01:04:47;;;;;;;1.50;0.90;;;20.50;69.00;;;;;;5051222;28;20053;-31
2023/08/31 01:07:31;;;;;;;2.83;1.00;;;20.50;65.40;;;;;;5052242;28;20044;-33
2023/08/31 01:10:06;;;;;;;1.40;0.90;;;21.50;83.00;;;;;;5068334;28;20048;-31
2023/08/31 01:12:36;;;;;;;3.43;1.00;;;20.20;82.10;;;;;;5071062;28;20055;-31
2023/08/31 01:15:07;;;;;;;1.67;0.93;;;20.20;82.20;;;;;;5051240;28;20053;-33
2023/08/31 01:17:33;;;;;;;1.50;1.00;;;19.50;68.10;;;;;;5051059;28;20107;-32
2023/08/31 01:20:00;;;;;;;1.98;1.00;;;21.10;82.90;;;;;;5051807;28;20124;-31
2023/08/31 01:22:31;;;;;;;1.02;0.93;;;20.70;83.20;;;;;;5068334;28;20123;-31
2023/08/31 01:25:02;;;;;;;1.13;0.90;;;20.30;82.50;;;;;;5054023;28;20052;-31
2023/08/31 01:27:30;;;;;;;1.65;1.08;;;;;;;;;;5053176;28;20415;-31
2023/08/31 01:29:57;;;;;;;1.42;0.85;;;20.00;82.90;;;;;;5055003;28;20128;-31
2023/08/31 01:32:23;;;;;;;1.30;1.00;;;19.90;72.50;;;;;;5054335;28;20131;-31
2023/08/31 01:34:51;;;;;;;2.03;0.90;;;20.10;74.70;;;;;;5054716;28;20090;-31
2023/08/31 01:37:21;;;;;;;1.75;0.80;;;20.30;65.80;;;;;;5061042;28;20087;-31
2023/08/31 01:39:50;;;;;;;0.82;0.77;;;20.30;82.70;;;;;;5054319;28;20132;-31
2023/08/31 01:42:18;;;;;;;1.70;0.93;;;;;;;;;;5054335;28;20057;-32
2023/08/31 01:44:48;;;;;;;2.05;1.02;;;20.00;82.30;;;;;;5054648;28;20475;-31
2023/08/31 01:47:15;;;;;;;1.83;1.15;;;20.10;79.50;;;;;;5054209;28;20049;-31
2023/08/31 01:49:43;;;;;;;1.65;1.00;;;20.40;82.60;;;;;;5054569;28;20076;-30
2023/08/31 01:52:10;;;;;;;2.15;1.10;;;20.40;83.10;;;;;;5054453;28;20060;-30
2023/08/31 01:54:38;;;;;;;1.10;0.98;;;;;;;;;;5054414;28;20152;-34
2023/08/31 01:57:06;;;;;;;1.20;0.85;;;20.30;65.40;;;;;;5054143;28;20044;-33
2023/08/31 01:59:34;;;;;;;0.80;0.80;;;19.70;71.00;;;;;;5054039;28;20045;-31
2023/08/31 02:02:01;;;;;;;1.58;0.95;;;;;;;;;;5054243;28;20127;-34
2023/08/31 02:04:28;;;;;;;1.52;0.73;;;;;;;;;;5053948;28;20132;-31
2023/08/31 02:06:55;;;;;;;2.15;0.90;;;;;;;;;;5054173;28;20128;-31
2023/08/31 02:09:22;;;;;;;1.85;0.95;;;20.20;83.00;;;;;;5072963;28;20045;-31
2023/08/31 02:11:48;;;;;;;0.80;0.77;;;20.10;83.50;;;;;;5073794;28;20132;-30
2023/08/31 02:14:15;;;;;;;0.93;0.80;;;;;;;;;;5073846;28;20132;-34
2023/08/31 02:16:44;;;;;;;1.60;1.08;;;20.30;83.50;;;;;;5073968;28;20132;-31
2023/08/31 02:19:11;;;;;;;1.98;1.00;;;20.10;82.60;;;;;;5053466;28;20502;-30
2023/08/31 02:21:38;;;;;;;1.45;0.90;;;;;;;;;;5053877;28;20053;-33
2023/08/31 02:24:05;;;;;;;1.67;1.00;;;20.00;82.60;;;;;;5053426;28;20049;-31
2023/08/31 02:26:32;;;;;;;1.48;0.98;;;20.60;68.90;;;;;;5053616;28;20135;-31
2023/08/31 02:28:59;;;;;;;1.98;0.90;;;20.50;82.90;;;;;;5053312;28;20079;-30
2023/08/31 02:31:26;;;;;;;1.80;1.00;;;20.00;74.20;;;;;;5053607;28;20453;-31
2023/08/31 02:33:54;;;;;;;1.30;0.90;;;20.30;74.40;;;;;;5053114;28;20144;-32
2023/08/31 02:36:21;;;;;;;1.85;1.10;;;19.90;82.50;;;;;;5057392;28;20461;-31
2023/08/31 02:38:49;;;;;;;1.27;1.00;;;;;;;;;;5069591;28;20052;-32
2023/08/31 02:41:16;;;;;;;2.08;1.00;;;20.30;66.50;;;;;;5073098;28;20049;-31
2023/08/31 02:43:43;;;;;;;1.02;0.90;;;20.20;83.60;;;;;;5073002;28;20483;-32
2023/08/31 02:46:09;;;;;;;1.90;1.10;;;20.70;83.90;;;;;;5073341;28;20049;-29
2023/08/31 02:48:36;;;;;;;1.92;1.10;;;;;;;;;;5072958;28;20123;-32
2023/08/31 02:51:04;;;;;;;2.63;1.05;;;20.00;83.50;;;;;;5073136;28;20127;-30
2023/08/31 02:53:31;;;;;;;1.20;0.90;;;20.50;82.90;;;;;;5066199;28;20128;-31
2023/08/31 02:55:58;;;;;;;1.58;0.98;;;19.90;82.70;;;;;;5053223;28;20128;-33
2023/08/31 02:58:25;;;;;;;3.05;1.10;;;19.70;75.20;;;;;;5052892;28;20140;-30
2023/08/31 03:00:53;;;;;;;1.20;1.05;;;;;;;;;;5053013;28;20136;-31
2023/08/31 03:03:19;;;;;;;1.95;1.27;;;20.00;82.70;;;;;;5052639;28;20049;-32
2023/08/31 03:05:46;;;;;;;1.67;0.98;;;19.00;76.10;;;;;;5052857;28;20683;-31
2023/08/31 03:08:14;;;;;;;2.45;1.13;;;20.30;76.90;;;;;;5062326;28;20075;-31
2023/08/31 03:10:41;;;;;;;2.13;1.15;;;20.00;71.20;;;;;;5071378;28;20137;-30
2023/08/31 03:13:08;;;;;;;1.10;1.00;;;20.40;82.60;;;;;;5070657;28;20127;-32
2023/08/31 03:15:35;;;;;;;1.55;1.10;;;;;;;;;;5071881;28;20589;-32
2023/08/31 03:18:02;;;;;;;2.25;0.93;;;19.80;82.70;;;;;;5062487;28;20517;-31
2023/08/31 03:20:29;;;;;;;1.42;1.00;;;;;;;;;;5051581;28;20413;-31
2023/08/31 03:22:56;;;;;;;2.63;1.08;;;19.70;82.60;;;;;;5051860;28;20165;-32
2023/08/31 03:25:24;;;;;;;3.22;1.00;;;19.80;82.80;;;;;;5051909;28;20136;-37
2023/08/31 03:27:51;;;;;;;1.52;1.00;;;;;;;;;;5051915;28;20136;-36
2023/08/31 03:30:18;;;;;;;1.67;0.90;;;20.50;71.80;;;;;;5059173;28;20040;-34
2023/08/31 03:32:44;;;;;;;1.13;1.00;;;20.30;83.00;;;;;;5060549;28;20132;-38
2023/08/31 03:35:12;;;;;;;1.60;1.10;;;;;;;;;;5059209;28;20131;-35
2023/08/31 03:37:39;;;;;;;1.05;0.90;;;;;;;;;;5057538;28;20402;-36
2023/08/31 03:40:07;;;;;;;1.60;0.93;;;20.10;65.70;;;;;;5053890;28;20143;-35
2023/08/31 03:42:35;;;;;;;3.15;1.00;;;20.00;67.60;;;;;;5060953;28;20053;-37
2023/08/31 03:45:03;;;;;;;1.02;0.93;;;20.40;76.10;;;;;;5059570;28;20080;-36
2023/08/31 03:47:30;;;;;;;1.70;1.05;;;;;;;;;;5057308;28;20114;-36
2023/08/31 03:49:57;;;;;;;1.65;0.98;;;;;;;;;;5070973;28;20055;-39
2023/08/31 03:52:24;;;;;;;2.33;0.95;;;;;;;;;;5070576;28;20135;-35
2023/08/31 03:54:52;;;;;;;2.05;1.13;;;20.10;74.90;;;;;;5071872;28;20466;-35
2023/08/31 03:57:19;;;;;;;1.85;1.10;;;20.30;80.00;;;;;;5071240;28;20638;-37
2023/08/31 03:59:47;;;;;;;1.08;0.90;;;20.10;83.60;;;;;;5072274;28;20128;-39
2023/08/31 04:02:13;;;;;;;1.23;1.02;;;20.50;70.00;;;;;;5071849;28;20143;-39
2023/08/31 04:04:40;;;;;;;1.58;1.10;;;20.00;84.00;;;;;;5071641;28;20159;-37
2023/08/31 04:07:07;;;;;;;2.30;1.10;;;20.90;73.70;;;;;;5072059;28;20136;-38
2023/08/31 04:09:33;;;;;;;1.00;0.90;;;19.20;66.70;;;;;;5071965;28;20132;-39
2023/08/31 04:12:00;;;;;;;1.90;1.20;;;20.70;83.90;;;;;;5071898;28;20131;-36
2023/08/31 04:14:27;;;;;;;1.35;1.00;;;20.20;70.60;;;;;;5071439;28;20474;-36
2023/08/31 04:16:55;;;;;;;1.52;1.00;;;20.40;83.50;;;;;;5071922;28;20131;-40
2023/08/31 04:19:22;;;;;;;1.58;1.00;;;20.50;83.80;;;;;;5053005;28;20577;-37
2023/08/31 04:21:48;;;;;;;2.20;1.17;;;20.10;83.70;;;;;;5052021;28;20080;-37
2023/08/31 04:24:15;;;;;;;2.40;1.25;;;19.50;71.60;;;;;;5051721;28;20128;-37
2023/08/31 04:26:42;;;;;;;1.20;1.00;;;20.40;83.80;;;;;;5051749;28;20135;-37
2023/08/31 04:29:09;;;;;;;1.13;1.02;;;20.00;84.10;;;;;;5056771;28;20123;-35
2023/08/31 04:31:36;;;;;;;1.38;1.02;;;20.00;73.50;;;;;;5071688;28;20136;-37
2023/08/31 04:34:04;;;;;;;1.60;1.20;;;20.10;83.30;;;;;;5071972;28;20137;-39
2023/08/31 04:36:30;;;;;;;2.47;1.20;;;19.20;82.90;;;;;;5071390;28;20048;-39
2023/08/31 04:38:58;;;;;;;2.30;1.13;;;;;;;;;;5056793;28;20135;-38
2023/08/31 04:41:24;;;;;;;1.70;1.30;;;19.70;74.50;;;;;;5051546;28;20049;-36
2023/08/31 04:43:51;;;;;;;1.45;0.95;;;19.50;83.10;;;;;;5051611;28;20128;-36
2023/08/31 04:46:18;;;;;;;1.77;1.30;;;20.20;75.70;;;;;;5051599;28;20049;-36
2023/08/31 04:48:45;;;;;;;1.83;1.30;;;19.90;83.30;;;;;;5051740;28;20132;-37
2023/08/31 04:51:32;;;;;;;1.40;1.00;;;20.30;84.30;;;;;;5051603;28;20706;-37
2023/08/31 04:53:58;;;;;;;3.08;1.30;;;19.40;83.00;;;;;;5051076;28;20049;-39
2023/08/31 04:56:32;;;;;;;1.58;1.10;;;19.90;74.80;;;;;;5051427;28;20421;-40
2023/08/31 04:58:59;;;;;;;1.80;1.20;;;18.90;83.10;;;;;;5052673;28;20049;-40
2023/08/31 05:01:26;;;;;;;2.47;1.20;;;20.30;83.90;;;;;;5055541;28;20095;-40
2023/08/31 05:03:52;;;;;;;1.13;0.98;;;19.50;71.00;;;;;;5055136;28;20131;-37
2023/08/31 05:06:20;;;;;;;1.30;1.20;;;20.30;83.90;;;;;;5067119;28;20135;-38
2023/08/31 05:08:48;;;;;;;1.40;1.10;;;19.80;65.80;;;;;;5062380;28;20421;-33
2023/08/31 05:11:15;;;;;;;1.90;1.35;;;;;;;;;;5055165;28;20470;-35
2023/08/31 05:13:42;;;;;;;1.70;1.20;;;;;;;;;;5055227;28;20136;-37
2023/08/31 05:16:09;;;;;;;1.55;1.20;;;20.00;83.50;;;;;;5055222;28;20051;-35
2023/08/31 05:18:36;;;;;;;2.90;1.40;;;20.00;83.60;;;;;;5055369;28;20124;-39
2023/08/31 05:21:03;;;;;;;1.40;1.10;;;19.70;68.00;;;;;;5055064;28;20049;-36
2023/08/31 05:23:30;;;;;;;1.33;1.10;;;20.00;83.80;;;;;;5054547;28;20088;-37
2023/08/31 05:25:58;;;;;;;1.25;1.10;;;19.00;83.00;;;;;;5054871;28;20148;-38
2023/08/31 05:28:25;;;;;;;1.48;1.10;;;19.80;83.40;;;;;;5055018;28;20154;-40
2023/08/31 05:30:52;;;;;;;1.20;1.10;;;19.30;70.80;;;;;;5054923;28;20128;-35
2023/08/31 05:33:18;;;;;;;1.38;1.10;;;19.90;83.60;;;;;;5054483;28;20128;-38
2023/08/31 05:35:45;;;;;;;1.40;1.20;;;;;;;;;;5054937;28;20137;-34
2023/08/31 05:38:12;;;;;;;1.60;1.10;;;19.70;82.20;;;;;;5066440;28;20124;-31
2023/08/31 05:40:39;;;;;;;2.00;1.30;;;19.70;83.40;;;;;;5054264;28;20135;-31
2023/08/31 05:43:07;;;;;;;2.42;1.30;;;19.60;70.40;;;;;;5054264;28;20481;-31
2023/08/31 05:45:34;;;;;;;1.20;1.10;;;20.00;68.50;;;;;;5054851;28;20131;-33
2023/08/31 05:48:01;;;;;;;1.48;1.15;;;19.40;83.20;;;;;;5054421;28;20553;-31
2023/08/31 05:50:28;;;;;;;2.25;1.35;;;;;;;;;;5054558;28;20063;-35
2023/08/31 05:52:55;;;;;;;1.45;1.20;;;19.40;83.60;;;;;;5053823;28;20127;-30
2023/08/31 05:55:21;;;;;;;1.20;1.10;;;20.30;84.60;;;;;;5054632;28;20060;-31
2023/08/31 05:57:48;;;;;;;2.67;1.17;;;20.00;74.30;;;;;;5054528;28;20080;-31
2023/08/31 06:00:17;;;;;;;1.25;1.10;;;19.50;66.70;;;;;;5054201;28;20128;-30
2023/08/31 06:02:44;;;;;;;2.63;1.27;;;;;;;;;;5067006;28;20136;-33
2023/08/31 06:05:13;;;;;;;1.30;1.10;;;19.30;83.70;;;;;;5064916;28;20052;-31
2023/08/31 06:07:39;;;;;;;2.33;1.27;;;19.60;83.50;;;;;;5056836;28;20045;-30
2023/08/31 06:10:07;;;;;;;2.38;1.13;;;19.70;65.90;;;;;;5062765;28;20037;-33
2023/08/31 06:12:34;;;;;;;1.60;1.20;;;19.30;83.70;;;;;;5061667;28;21471;-31
2023/08/31 06:15:01;;;;;;;1.13;1.00;;;;;;;;;;5062960;28;20076;-33
2023/08/31 06:17:29;;;;;;;1.70;1.10;;;19.40;83.60;;;;;;5062823;28;20072;-30
2023/08/31 06:19:56;;;;;;;1.67;1.10;;;19.90;80.10;;;;;;5062297;28;20554;-32
2023/08/31 06:22:24;;;;;;;1.90;1.20;;;19.20;83.30;;;;;;5063700;28;20131;-32
2023/08/31 06:24:51;;;;;;;2.95;1.48;;;;;;;;;;5064066;28;20052;-33
2023/08/31 06:27:18;;;;;;;1.73;1.10;;;19.30;83.80;;;;;;5062143;28;20045;-30
2023/08/31 06:29:45;;;;;;;1.50;1.10;;;;;;;;;;5063625;28;20043;-32
2023/08/31 06:32:12;;;;;;;2.42;1.10;;;19.30;75.10;;;;;;5063742;28;20131;-30
2023/08/31 06:34:40;;;;;;;1.63;1.10;;;19.60;65.90;;;;;;5062333;28;20123;-30
2023/08/31 06:37:06;;;;;;;1.48;1.30;;;19.40;83.50;;;;;;5061167;28;20465;-30
2023/08/31 06:39:33;;;;;;;2.05;1.15;;;;;;;;;;5061846;28;20136;-33
2023/08/31 06:42:00;;;;;;;1.40;1.00;;;20.40;84.40;;;;;;5052792;28;20453;-31
2023/08/31 06:44:29;;;;;;;1.70;1.08;;;;;;;;;;5057905;28;20152;-33
2023/08/31 06:46:56;;;;;;;2.15;1.20;;;19.10;70.50;;;;;;5067125;28;20402;-34
2023/08/31 06:49:23;;;;;;;1.25;0.98;;;19.40;83.40;;;;;;5072952;28;20136;-30
2023/08/31 06:51:51;;;;;;;1.88;1.10;;;19.60;66.00;;;;;;5073540;28;20131;-32
2023/08/31 06:54:18;;;;;;;2.10;1.10;;;;;;;;;;5073255;28;20084;-33
2023/08/31 06:56:44;;;;;;;1.20;1.05;;;19.60;83.50;;;;;;5064277;28;20139;-29
2023/08/31 06:59:11;;;;;;;1.20;1.00;;;20.00;76.60;;;;;;5067728;28;20140;-33
2023/08/31 07:01:38;;;;;;;1.25;0.95;;;;;;;;;;5073053;28;20045;-30
2023/08/31 07:04:06;;;;;;;1.02;0.90;;;19.30;83.80;;;;;;5072642;28;20131;-30
2023/08/31 07:06:34;;;;;;;1.83;1.00;;;19.50;79.30;;;;;;5068864;28;20470;-31
2023/08/31 07:09:03;;;;;;;1.45;0.90;;;20.40;84.10;;;;;;5062237;28;20119;-32
2023/08/31 07:11:29;;;;;;;0.85;0.80;;;19.80;84.10;;;;;;5052754;28;20471;-29
2023/08/31 07:13:57;;;;;;;1.73;1.00;;;;;;;;;;5052488;28;20127;-31
2023/08/31 07:16:24;;;;;;;1.10;0.98;;;19.30;83.90;;;;;;5052761;28;20129;-31
2023/08/31 07:18:50;;;;;;;1.00;0.90;;;18.40;70.00;;;;;;5065688;28;20476;-31
2023/08/31 07:21:17;;;;;;;1.92;1.02;;;19.90;84.00;;;;;;5072551;28;20132;-32
2023/08/31 07:23:44;;;;;;;1.10;0.85;;;19.60;84.10;;;;;;5072204;28;20488;-30
2023/08/31 07:26:12;;;;;;;2.10;0.98;;;19.60;66.10;;;;;;5072558;28;20136;-32
2023/08/31 07:28:39;;;;;;;0.90;0.80;;;;;;;;;;5062253;28;20119;-30
2023/08/31 07:31:06;;;;;;;1.00;0.80;;;19.40;84.10;;;;;;5070627;28;20123;-31
2023/08/31 07:33:34;;;;;;;1.65;0.90;;;;;;;;;;5072394;28;20136;-32
2023/08/31 07:36:03;;;;;;;1.35;0.90;;;;;;;;;;5072080;28;20124;-34
2023/08/31 07:38:30;;;;;;;1.95;1.00;;;20.00;81.50;;;;;;5071555;28;20056;-31
2023/08/31 07:40:57;;;;;;;1.08;0.80;;;;;;;;;;5065207;28;20227;-31
2023/08/31 07:43:26;;;;;;;2.95;0.80;;;19.50;83.70;;;;;;5051444;28;20068;-31
2023/08/31 07:45:53;;;;;;;0.73;0.70;;;19.70;84.10;;;;;;5061274;28;20073;-32
2023/08/31 07:48:20;;;;;;;1.15;0.75;;;19.80;79.80;;;;;;5061294;28;21565;-31
2023/08/31 07:50:46;;;;;;;2.45;0.90;;;19.90;84.00;;;;;;5054765;28;20132;-31
2023/08/31 07:53:13;;;;;;;1.63;0.90;;;19.40;83.70;;;;;;5052066;28;20136;-31
2023/08/31 07:55:40;;;;;;;1.15;0.80;;;19.70;75.20;;;;;;5068861;28;20445;-31
2023/08/31 07:58:07;;;;;;;0.93;0.80;;;18.70;83.40;;;;;;5071350;28;20118;-30
2023/08/31 08:00:35;;;;;;;1.42;0.82;;;19.80;66.30;;;;;;5072251;28;20127;-32
2023/08/31 08:03:02;;;;;;;2.40;1.00;;;;;;;;;;5072003;28;20668;-32
2023/08/31 08:05:29;;;;;;;2.17;1.00;;;;;;;;;;5072184;28;20127;-32
2023/08/31 08:07:56;;;;;;;1.08;0.90;;;;;;;;;;5071839;28;20082;-35
2023/08/31 08:10:23;;;;;;;3.28;1.10;;;19.40;84.00;;;;;;5071274;28;20127;-31
2023/08/31 08:12:49;;;;;;;2.40;0.85;;;19.20;84.00;;;;;;5069204;28;20135;-32
2023/08/31 08:15:16;;;;;;;0.95;0.60;;;19.60;69.90;;;;;;5057287;28;20053;-35
2023/08/31 08:17:44;;;;;;;1.00;0.73;;;18.60;83.30;;;;;;5057223;28;20131;-31
2023/08/31 08:20:12;;;;;;;1.48;0.80;;;19.70;84.20;;;;;;5056116;28;20132;-31
2023/08/31 08:22:39;;;;;;;2.88;0.82;;;19.40;68.30;;;;;;5065255;28;20540;-31
2023/08/31 08:25:06;;;;;;;2.80;1.00;;;19.50;84.20;;;;;;5061548;28;20123;-31
2023/08/31 08:27:33;;;;;;;2.33;0.73;;;19.10;83.60;;;;;;5061717;28;20064;-31
2023/08/31 08:30:00;;;;;;;1.83;0.80;;;19.70;83.80;;;;;;5057659;28;20499;-33
2023/08/31 08:32:27;;;;;;;1.13;0.80;;;;;;;;;;5058854;28;20123;-34
2023/08/31 08:34:55;;;;;;;2.20;0.90;;;19.20;74.10;;;;;;5062477;28;20136;-37
2023/08/31 08:37:22;;;;;;;1.20;0.60;;;19.50;84.50;;;;;;5063514;28;20127;-36
2023/08/31 08:39:49;;;;;;;2.28;0.93;;;19.10;83.60;;;;;;5065930;28;20131;-36
2023/08/31 08:42:16;;;;;;;1.27;0.70;;;19.80;83.70;;;;;;5065603;28;20037;-35
2023/08/31 08:44:43;;;;;;;2.30;0.80;;;;;;;;;;5064286;28;20124;-32
2023/08/31 08:47:10;;;;;;;2.03;0.75;;;20.20;84.00;;;;;;5074600;28;20139;-35
2023/08/31 08:49:37;;;;;;;0.70;0.70;;;19.70;83.70;;;;;;5075491;28;20087;-36
2023/08/31 08:52:05;;;;;;;1.40;1.00;;;20.10;69.70;;;;;;5073564;28;20048;-35
2023/08/31 08:54:32;;;;;;;2.28;1.02;;;19.60;83.30;;;;;;5074489;28;20481;-35
2023/08/31 08:57:00;;;;;;;4.20;1.25;;;19.00;82.90;;;;;;5074326;28;20091;-36
2023/08/31 08:59:28;;;;;;;3.00;1.15;;;;;;;;;;5074764;28;20048;-36
2023/08/31 09:01:55;;;;;;;3.45;1.20;;;19.70;82.90;;;;;;5074471;28;20123;-36
2023/08/31 09:04:22;;;;;;;8.25;1.67;;;;;;;;;;5074624;28;20056;-33
2023/08/31 09:06:48;;;;;;;6.70;1.40;;;19.70;82.80;;;;;;5075234;28;20131;-37
2023/08/31 09:09:17;;;;;;;4.53;1.42;;;19.70;83.00;;;;;;5073966;28;20131;-36
2023/08/31 09:11:44;;;;;;;2.58;1.10;;;;;;;;;;5075354;28;20079;-35
2023/08/31 09:14:17;;;;;;;2.90;1.20;;;19.60;82.70;;;;;;5074573;28;20087;-30
2023/08/31 09:16:45;;;;;;;6.13;1.00;;;20.30;83.40;;;;;;5075105;28;20128;-30
2023/08/31 09:19:18;;;;;;;4.78;1.60;;;19.90;65.30;;;;;;5074474;28;20127;-35
2023/08/31 09:21:45;;;;;;;2.83;1.20;;;19.80;82.90;;;;;;5066231;28;20127;-30
2023/08/31 09:24:13;;;;;;;3.17;1.13;;;20.20;67.20;;;;;;5063440;28;20048;-32
2023/08/31 09:26:44;;;;;;;3.70;1.20;;;20.50;83.30;;;;;;5072163;28;20060;-30
2023/08/31 09:29:10;;;;;;;4.07;1.25;;;19.90;67.60;;;;;;5056564;28;20083;-32
2023/08/31 09:31:37;;;;;;;4.18;1.40;;;20.30;82.80;;;;;;5054912;28;20128;-30
2023/08/31 09:34:04;;;;;;;4.05;1.52;;;20.30;82.50;;;;;;5070303;28;20172;-30
2023/08/31 09:36:31;;;;;;;6.35;2.00;;;20.20;68.70;;;;;;5073894;28;20140;-31
2023/08/31 09:38:58;;;;;;;4.03;1.80;;;20.00;82.10;;;;;;5074784;28;20087;-30
2023/08/31 09:41:25;;;;;;;8.27;2.28;;;19.80;68.10;;;;;;5074365;28;20135;-32
2023/08/31 09:43:53;;;;;;;5.22;2.28;;;19.50;81.90;;;;;;5074301;28;20127;-30
2023/08/31 09:46:20;;;;;;;5.60;2.30;;;20.50;82.00;;;;;;5072915;28;20131;-30
2023/08/31 09:48:47;;;;;;;3.97;2.15;;;20.20;69.80;;;;;;5074682;28;20114;-32
2023/08/31 09:51:16;;;;;;;7.20;2.58;;;20.70;82.20;;;;;;5074146;28;20571;-34
2023/08/31 09:53:43;;;;;;;6.38;2.42;;;;;;;;;;5073985;28;20139;-35
2023/08/31 09:56:11;;;;;;;5.10;2.50;;;21.20;72.00;;;;;;5073974;28;20147;-34
2023/08/31 09:58:37;;;;;;;5.35;2.55;;;20.60;75.40;;;;;;5074186;28;20131;-34
2023/08/31 10:01:06;;;;;;;5.90;2.65;;;21.50;81.80;;;;;;5074079;28;20052;-35
2023/08/31 10:03:33;;;;;;;5.65;2.50;;;21.70;82.20;;;;;;5073998;28;20110;-38
2023/08/31 10:06:00;;;;;;;6.43;2.00;;;;;;;;;;5059476;28;20451;-35
2023/08/31 10:08:31;;;;;;;4.57;2.22;;;21.00;82.00;;;;;;5065530;28;20067;-35
2023/08/31 10:10:58;;;;;;;6.05;2.30;;;;;;;;;;5070886;28;20045;-34
2023/08/31 10:13:24;;;;;;;3.65;2.00;;;20.60;72.50;;;;;;5072101;28;20119;-36
2023/08/31 10:15:51;;;;;;;4.07;1.80;;;20.50;81.90;;;;;;5067073;28;20123;-38
2023/08/31 10:18:19;;;;;;;2.90;1.60;;;20.50;64.00;;;;;;5062541;28;20065;-34
2023/08/31 10:20:46;;;;;;;4.20;1.75;;;;;;;;;;5063741;28;20052;-35
2023/08/31 10:23:13;;;;;;;5.30;1.60;;;19.90;81.60;;;;;;5063503;28;20123;-36
2023/08/31 10:26:03;;;;;;;3.33;1.58;;;20.40;64.10;;;;;;5064348;28;20429;-38
2023/08/31 10:28:30;;;;;;;2.80;1.50;;;;;;;;;;5062947;28;20065;-34
2023/08/31 10:31:03;;;;;;;3.40;1.50;;;20.30;73.70;;;;;;5062167;28;20135;-35
2023/08/31 10:33:33;;;;;;;3.42;1.70;;;20.30;64.20;;;;;;5063669;28;20060;-33
2023/08/31 10:36:00;;;;;;;4.80;1.67;;;20.10;81.90;;;;;;5053592;28;20725;-35
2023/08/31 10:38:28;;;;;;;2.00;1.10;;;20.30;64.20;;;;;;5060966;28;20128;-37
2023/08/31 10:41:02;;;;;;;2.72;1.40;;;20.60;73.40;;;;;;5061169;28;20529;-36
2023/08/31 10:43:43;;;;;;;2.60;1.25;;;19.60;81.60;;;;;;5064291;28;20136;-31
2023/08/31 10:46:16;;;;;;;2.30;1.33;;;20.40;81.70;;;;;;5053268;28;20123;-31
2023/08/31 10:48:54;;;;;;;2.78;1.40;;;20.50;64.20;;;;;;5062634;28;20128;-32
2023/08/31 10:51:23;;;;;;;2.38;1.20;;;20.50;64.10;;;;;;5052197;28;20509;-33
2023/08/31 10:53:50;;;;;;;5.38;1.48;;;20.50;82.10;;;;;;5052596;28;20052;-31
2023/08/31 10:56:17;;;;;;;3.42;1.90;;;20.90;81.40;;;;;;5052309;28;20137;-31
2023/08/31 10:58:44;;;;;;;3.05;1.40;;;20.20;80.80;;;;;;5053147;28;20131;-30
2023/08/31 11:01:11;;;;;;;3.13;1.42;;;;;;;;;;5052803;28;20494;-33
2023/08/31 11:04:00;;;;;;;2.67;1.30;;;20.60;81.50;;;;;;5052281;28;20565;-30
2023/08/31 11:06:29;;;;;;;2.47;1.20;;;21.00;81.80;;;;;;5052930;28;20140;-30
2023/08/31 11:08:56;;;;;;;2.83;1.40;;;21.20;81.70;;;;;;5068270;28;20056;-32
2023/08/31 11:11:24;;;;;;;2.42;1.25;;;20.60;63.80;;;;;;5072776;28;20140;-30
2023/08/31 11:13:50;;;;;;;3.42;1.48;;;20.60;81.10;;;;;;5071831;28;20119;-31
2023/08/31 11:16:17;;;;;;;2.15;1.02;;;21.20;76.90;;;;;;5072673;28;20139;-31
2023/08/31 11:18:44;;;;;;;2.72;1.35;;;;;;;;;;5072904;28;20127;-33
2023/08/31 11:21:12;;;;;;;2.83;0.98;;;20.60;82.00;;;;;;5072684;28;20140;-32
2023/08/31 11:23:39;;;;;;;1.77;1.00;;;20.40;81.40;;;;;;5066139;28;20135;-31
2023/08/31 11:26:06;;;;;;;1.80;1.00;;;;;;;;;;5071882;28;20086;-31
2023/08/31 11:28:34;;;;;;;1.90;1.00;;;20.20;81.40;;;;;;5072367;28;20562;-35
2023/08/31 11:31:00;;;;;;;3.13;1.08;;;21.30;82.00;;;;;;5072716;28;20049;-35
2023/08/31 11:33:32;;;;;;;1.40;0.95;;;20.30;81.50;;;;;;5070666;28;20131;-39
2023/08/31 11:35:59;;;;;;;1.92;0.90;;;21.10;82.00;;;;;;5065200;28;20059;-36
2023/08/31 11:38:27;;;;;;;2.55;1.20;;;21.50;82.20;;;;;;5072681;28;20056;-35
2023/08/31 11:40:57;;;;;;;1.90;1.10;;;20.50;68.20;;;;;;5071902;28;20539;-38
2023/08/31 11:43:24;;;;;;;1.45;1.00;;;20.90;81.70;;;;;;5057876;28;20132;-35
2023/08/31 11:45:51;;;;;;;1.83;1.10;;;;;;;;;;5061387;28;20553;-32
2023/08/31 11:48:17;;;;;;;1.75;1.00;;;20.70;81.50;;;;;;5060119;28;20049;-35
2023/08/31 11:50:44;;;;;;;1.30;0.80;;;20.70;81.50;;;;;;5054714;28;20099;-39
2023/08/31 11:53:11;;;;;;;1.30;0.93;;;20.10;71.10;;;;;;5058550;28;20120;-37
2023/08/31 11:55:45;;;;;;;1.38;1.00;;;20.70;74.00;;;;;;5069071;28;20055;-39
2023/08/31 11:58:11;;;;;;;1.20;0.80;;;20.90;81.50;;;;;;5071702;28;20083;-36
2023/08/31 12:00:38;;;;;;;2.00;0.90;;;20.50;81.60;;;;;;5069209;28;20139;-37
2023/08/31 12:03:05;;;;;;;1.88;0.95;;;20.70;64.00;;;;;;5058869;28;20413;-35
2023/08/31 12:05:45;;;;;;;1.23;0.80;;;21.60;82.00;;;;;;5052226;28;20067;-37
2023/08/31 12:08:12;;;;;;;1.85;0.90;;;20.30;81.40;;;;;;5057711;28;20125;-37
2023/08/31 12:10:42;;;;;;;1.35;0.80;;;19.60;80.80;;;;;;5064269;28;20133;-31
2023/08/31 12:13:09;;;;;;;1.33;0.90;;;20.40;81.50;;;;;;5051556;28;20474;-32
2023/08/31 12:15:35;;;;;;;1.85;1.00;;;20.80;66.20;;;;;;5058715;28;20132;-32
2023/08/31 12:18:08;;;;;;;1.45;0.82;;;20.50;81.60;;;;;;5071131;28;20541;-31
2023/08/31 12:20:40;;;;;;;2.10;0.98;;;20.30;81.50;;;;;;5071862;28;20123;-31
2023/08/31 12:23:08;;;;;;;1.40;0.80;;;20.80;82.70;;;;;;5071469;28;20098;-31
2023/08/31 12:25:35;;;;;;;1.63;0.85;;;;;;;;;;5071630;28;20084;-31
2023/08/31 12:28:03;;;;;;;1.10;0.70;;;20.50;64.60;;;;;;5054211;28;20049;-32
2023/08/31 12:30:31;;;;;;;1.08;0.75;;;;;;;;;;5051822;28;20049;-34
2023/08/31 12:32:57;;;;;;;1.70;1.10;;;20.40;82.30;;;;;;5051018;28;20060;-30
2023/08/31 12:35:24;;;;;;;1.05;0.90;;;21.20;68.70;;;;;;5056047;28;20132;-31
2023/08/31 12:37:51;;;;;;;1.25;0.90;;;19.20;81.50;;;;;;5056554;28;20138;-31
2023/08/31 12:40:19;;;;;;;2.70;1.02;;;21.30;82.50;;;;;;5063443;28;20135;-31
2023/08/31 12:42:46;;;;;;;2.00;0.93;;;;;;;;;;5071128;28;20091;-34
2023/08/31 12:45:14;;;;;;;2.08;0.95;;;20.50;64.90;;;;;;5071602;28;20131;-35
2023/08/31 12:47:41;;;;;;;3.28;1.00;;;21.30;82.50;;;;;;5057584;28;20148;-39
2023/08/31 12:50:08;;;;;;;1.10;0.80;;;20.60;82.60;;;;;;5051474;28;20127;-37
2023/08/31 12:52:35;;;;;;;2.33;1.25;;;20.00;82.40;;;;;;5051451;28;20123;-35
2023/08/31 12:55:04;;;;;;;2.50;1.10;;;20.90;82.90;;;;;;5051429;28;20127;-36
2023/08/31 12:57:31;;;;;;;1.17;0.85;;;;;;;;;;5059667;28;20052;-36
2023/08/31 12:59:57;;;;;;;2.03;1.00;;;20.80;82.50;;;;;;5069347;28;20059;-38
2023/08/31 13:02:25;;;;;;;1.00;0.70;;;21.10;82.80;;;;;;5071130;28;20127;-35
2023/08/31 13:04:52;;;;;;;1.75;1.20;;;21.30;83.00;;;;;;5071583;28;20128;-38
2023/08/31 13:07:19;;;;;;;0.70;0.60;;;;;;;;;;5070503;28;20131;-33
2023/08/31 13:09:46;;;;;;;1.15;0.70;;;20.20;82.30;;;;;;5071070;28;20132;-39